Tole Mour — WDA5625 — position and weather

sailwx.info

Track history (hours):
 
Tides and Currents Weather Stations Pressure Air Temp Water Temp Dewpoint Dewpoint Depression Visibility Wind Speed Wind Dir Waves Ship Positions

Tole Mour (United States)

The largest working tall ship on the west coast of North America. Former callsign WUV7222.

Ship's website: http://www.tolemour.org/

Owner: Guided Discoveries/SSV Tole Mour, Claremont, CA. More information available from US FCC via Universal Licensing System and Coast Guard Vessel Documentation Center.

Last reported at 2014-Oct-21 23:14 UTC. Time now 2014-Oct-22 09:37 UTC.
Position N 33°30' W 118°56'.

Type: Ship. MMSI: 366822140.

Date/timePositionNaut miles runAvg speedWind from/ knotsBaromVisibWave heightAir tempDewpointWater temp
2014-Oct-21 23:14N 33°30' W 118°56'1 1.6
2014-Oct-21 22:30N 33°29' W 118°56'3 3.5
2014-Oct-21 21:33N 33°26' W 118°55'8 7.5
2014-Oct-21 20:31N 33°26' W 118°46'12 6.1
2014-Oct-21 18:31N 33°28' W 118°31'19 0.8
2014-Oct-20 18:08N 33°42' W 118°15'4 7.7
2014-Oct-20 17:33N 33°44' W 118°11'1 1.4
2014-Oct-20 16:30N 33°46' W 118°12'0 0.0
2014-Oct-20 15:33N 33°46' W 118°12'0 0.0
2014-Oct-20 14:33N 33°46' W 118°12'0 0.0
2014-Oct-20 13:33N 33°46' W 118°12'0 0.0
2014-Oct-20 12:33N 33°46' W 118°12'0 0.0
2014-Oct-20 11:33N 33°46' W 118°12'0 0.0
2014-Oct-20 10:33N 33°46' W 118°12'0 0.0
2014-Oct-20 09:33N 33°46' W 118°12'0 0.0
2014-Oct-20 08:33N 33°46' W 118°12'0 0.0
2014-Oct-20 07:33N 33°46' W 118°12'0 0.0
2014-Oct-20 06:33N 33°46' W 118°12'0 0.0
2014-Oct-20 05:33N 33°46' W 118°12'0 0.0
2014-Oct-20 04:33N 33°46' W 118°12'0 0.0
2014-Oct-20 03:33N 33°46' W 118°12'0 0.0
2014-Oct-20 02:33N 33°46' W 118°12'0 0.0
2014-Oct-20 01:33N 33°46' W 118°12'0 0.0
2014-Oct-20 00:33N 33°46' W 118°12'0 0.0
2014-Oct-19 23:33N 33°46' W 118°12'0 0.0
2014-Oct-19 22:33N 33°46' W 118°12'0 0.0
2014-Oct-19 21:33N 33°46' W 118°12'0 0.0
2014-Oct-19 20:33N 33°46' W 118°12'0 0.0
2014-Oct-19 19:33N 33°46' W 118°12'0 0.0
2014-Oct-19 18:33N 33°46' W 118°12'0 0.0
2014-Oct-19 17:33N 33°46' W 118°12'0 0.0
2014-Oct-19 16:33N 33°46' W 118°12'0 0.0
2014-Oct-19 15:33N 33°46' W 118°12'0 0.0
2014-Oct-19 14:33N 33°46' W 118°12'0 0.0
2014-Oct-19 13:33N 33°46' W 118°12'0 0.0
2014-Oct-19 12:33N 33°46' W 118°12'0 0.0
2014-Oct-19 11:33N 33°46' W 118°12'0 0.0
2014-Oct-19 10:33N 33°46' W 118°12'0 0.0
2014-Oct-19 09:33N 33°46' W 118°12'0 0.0
2014-Oct-19 08:33N 33°46' W 118°12'0 0.0
2014-Oct-19 07:33N 33°46' W 118°12'0 0.0
2014-Oct-19 06:33N 33°46' W 118°12'0 0.0
2014-Oct-19 05:33N 33°46' W 118°12'0 0.0
2014-Oct-19 04:30N 33°46' W 118°12'2 2.3
2014-Oct-19 03:33N 33°44' W 118°11'  
2014-Oct-15 20:33N 33°44' W 118°11'2 1.7
2014-Oct-15 19:31N 33°46' W 118°12'0 0.0
2014-Oct-15 18:31N 33°46' W 118°12'0 0.0
2014-Oct-15 17:31N 33°46' W 118°12'0 0.0
2014-Oct-15 16:31N 33°46' W 118°12'0 0.0
2014-Oct-15 15:31N 33°46' W 118°12'0 0.0
2014-Oct-15 14:31N 33°46' W 118°12'0 0.0
2014-Oct-15 13:31N 33°46' W 118°12'0 0.0
2014-Oct-15 12:31N 33°46' W 118°12'0 0.0
2014-Oct-15 11:31N 33°46' W 118°12'0 0.0
2014-Oct-15 10:31N 33°46' W 118°12'0 0.0
2014-Oct-15 09:31N 33°46' W 118°12'0 0.0
2014-Oct-15 08:31N 33°46' W 118°12'0 0.0
2014-Oct-15 07:31N 33°46' W 118°12'0 0.0
2014-Oct-15 06:31N 33°46' W 118°12'0 0.0
2014-Oct-15 05:31N 33°46' W 118°12'0 0.0
2014-Oct-15 04:31N 33°46' W 118°12'0 0.0
2014-Oct-15 03:31N 33°46' W 118°12'0 0.0
2014-Oct-15 02:31N 33°46' W 118°12'0 0.0
2014-Oct-15 01:31N 33°46' W 118°12'0 0.0
2014-Oct-15 00:19N 33°46' W 118°12'0 0.0
2014-Oct-14 23:22N 33°46' W 118°12'0 0.0
2014-Oct-14 22:19N 33°46' W 118°12'0 0.0
2014-Oct-14 16:28N 33°46' W 118°12'0 0.0
2014-Oct-14 15:25N 33°46' W 118°12'0 0.0
2014-Oct-14 14:28N 33°46' W 118°12'0 0.0
2014-Oct-14 13:31N 33°46' W 118°12'0 0.0
2014-Oct-14 12:31N 33°46' W 118°12'0 0.0
2014-Oct-14 11:31N 33°46' W 118°12'0 0.0
2014-Oct-14 10:31N 33°46' W 118°12'0 0.0
2014-Oct-14 09:31N 33°46' W 118°12'0 0.0
2014-Oct-14 08:31N 33°46' W 118°12'0 0.0
2014-Oct-14 07:31N 33°46' W 118°12'0 0.0
2014-Oct-14 06:31N 33°46' W 118°12'0 0.0
2014-Oct-14 05:31N 33°46' W 118°12'0 0.0
2014-Oct-14 04:31N 33°46' W 118°12'0 0.0
2014-Oct-14 03:31N 33°46' W 118°12'0 0.0
2014-Oct-14 02:31N 33°46' W 118°12'0 0.0
2014-Oct-14 01:31N 33°46' W 118°12'0 0.0
2014-Oct-14 00:31N 33°46' W 118°12'0 0.0
2014-Oct-13 23:31N 33°46' W 118°12'1 0.8
2014-Oct-13 22:31N 33°45' W 118°11'4 4.2
2014-Oct-13 21:33N 33°41' W 118°11'5 5.3
2014-Oct-13 20:33N 33°36' W 118°14'6 6.3
2014-Oct-13 19:33N 33°31' W 118°17'4 4.3
2014-Oct-13 18:32N 33°27' W 118°20'3 3.4
2014-Oct-13 17:33N 33°24' W 118°22'0 0.3
2014-Oct-13 16:32N 33°24' W 118°22'0 0.0
2014-Oct-13 15:29N 33°24' W 118°22'0 0.0
2014-Oct-13 12:29N 33°24' W 118°22'0 0.0
2014-Oct-13 11:29N 33°24' W 118°22'0 0.0
2014-Oct-13 08:32N 33°24' W 118°22'0 0.0
2014-Oct-13 07:32N 33°24' W 118°22'0 0.0
2014-Oct-13 06:17N 33°24' W 118°22'0 0.0
2014-Oct-13 05:29N 33°24' W 118°22'0 0.0
2014-Oct-13 04:29N 33°24' W 118°22'0 0.0
2014-Oct-13 03:29N 33°24' W 118°22'0 0.0
2014-Oct-13 02:29N 33°24' W 118°22'0 0.0
2014-Oct-13 01:32N 33°24' W 118°22'0 0.0
2014-Oct-13 00:32N 33°24' W 118°22'2 2.1
2014-Oct-12 23:33N 33°26' W 118°20'1 0.9
2014-Oct-12 22:33N 33°26' W 118°22'3 3.3
2014-Oct-12 21:33N 33°29' W 118°20'6 5.9
2014-Oct-12 20:33N 33°29' W 118°27'3 0.2
2014-Oct-12 02:10N 33°27' W 118°30'0 0.0
2014-Oct-12 01:31N 33°27' W 118°30'0 0.1
2014-Oct-12 00:31N 33°27' W 118°30'  
Track history (hours):
 
Tides and Currents Weather Stations Pressure Air Temp Water Temp Dewpoint Dewpoint Depression Visibility Wind Speed Wind Dir Waves Ship Positions

Tole Mour (United States)

The largest working tall ship on the west coast of North America. Former callsign WUV7222.

Ship's website: http://www.tolemour.org/

Owner: Guided Discoveries/SSV Tole Mour, Claremont, CA. More information available from US FCC via Universal Licensing System and Coast Guard Vessel Documentation Center.

Last reported at 2014-Oct-21 23:14 UTC. Time now 2014-Oct-22 09:37 UTC.
Position N 33°30' W 118°56'.

Type: Ship. MMSI: 366822140.

Date/timePositionNaut miles runAvg speedWind from/ knotsBaromVisibWave heightAir tempDewpointWater temp
2014-Oct-21 23:14N 33°30' W 118°56'1 1.6
2014-Oct-21 22:30N 33°29' W 118°56'3 3.5
2014-Oct-21 21:33N 33°26' W 118°55'8 7.5
2014-Oct-21 20:31N 33°26' W 118°46'12 6.1
2014-Oct-21 18:31N 33°28' W 118°31'19 0.8
2014-Oct-20 18:08N 33°42' W 118°15'4 7.7
2014-Oct-20 17:33N 33°44' W 118°11'1 1.4
2014-Oct-20 16:30N 33°46' W 118°12'0 0.0
2014-Oct-20 15:33N 33°46' W 118°12'0 0.0
2014-Oct-20 14:33N 33°46' W 118°12'0 0.0
2014-Oct-20 13:33N 33°46' W 118°12'0 0.0
2014-Oct-20 12:33N 33°46' W 118°12'0 0.0
2014-Oct-20 11:33N 33°46' W 118°12'0 0.0
2014-Oct-20 10:33N 33°46' W 118°12'0 0.0
2014-Oct-20 09:33N 33°46' W 118°12'0 0.0
2014-Oct-20 08:33N 33°46' W 118°12'0 0.0
2014-Oct-20 07:33N 33°46' W 118°12'0 0.0
2014-Oct-20 06:33N 33°46' W 118°12'0 0.0
2014-Oct-20 05:33N 33°46' W 118°12'0 0.0
2014-Oct-20 04:33N 33°46' W 118°12'0 0.0
2014-Oct-20 03:33N 33°46' W 118°12'0 0.0
2014-Oct-20 02:33N 33°46' W 118°12'0 0.0
2014-Oct-20 01:33N 33°46' W 118°12'0 0.0
2014-Oct-20 00:33N 33°46' W 118°12'0 0.0
2014-Oct-19 23:33N 33°46' W 118°12'0 0.0
2014-Oct-19 22:33N 33°46' W 118°12'0 0.0
2014-Oct-19 21:33N 33°46' W 118°12'0 0.0
2014-Oct-19 20:33N 33°46' W 118°12'0 0.0
2014-Oct-19 19:33N 33°46' W 118°12'0 0.0
2014-Oct-19 18:33N 33°46' W 118°12'0 0.0
2014-Oct-19 17:33N 33°46' W 118°12'0 0.0
2014-Oct-19 16:33N 33°46' W 118°12'0 0.0
2014-Oct-19 15:33N 33°46' W 118°12'0 0.0
2014-Oct-19 14:33N 33°46' W 118°12'0 0.0
2014-Oct-19 13:33N 33°46' W 118°12'0 0.0
2014-Oct-19 12:33N 33°46' W 118°12'0 0.0
2014-Oct-19 11:33N 33°46' W 118°12'0 0.0
2014-Oct-19 10:33N 33°46' W 118°12'0 0.0
2014-Oct-19 09:33N 33°46' W 118°12'0 0.0
2014-Oct-19 08:33N 33°46' W 118°12'0 0.0
2014-Oct-19 07:33N 33°46' W 118°12'0 0.0
2014-Oct-19 06:33N 33°46' W 118°12'0 0.0
2014-Oct-19 05:33N 33°46' W 118°12'0 0.0
2014-Oct-19 04:30N 33°46' W 118°12'2 2.3
2014-Oct-19 03:33N 33°44' W 118°11'  
2014-Oct-15 20:33N 33°44' W 118°11'2 1.7
2014-Oct-15 19:31N 33°46' W 118°12'0 0.0
2014-Oct-15 18:31N 33°46' W 118°12'0 0.0
2014-Oct-15 17:31N 33°46' W 118°12'0 0.0
2014-Oct-15 16:31N 33°46' W 118°12'0 0.0
2014-Oct-15 15:31N 33°46' W 118°12'0 0.0
2014-Oct-15 14:31N 33°46' W 118°12'0 0.0
2014-Oct-15 13:31N 33°46' W 118°12'0 0.0
2014-Oct-15 12:31N 33°46' W 118°12'0 0.0
2014-Oct-15 11:31N 33°46' W 118°12'0 0.0
2014-Oct-15 10:31N 33°46' W 118°12'0 0.0
2014-Oct-15 09:31N 33°46' W 118°12'0 0.0
2014-Oct-15 08:31N 33°46' W 118°12'0 0.0
2014-Oct-15 07:31N 33°46' W 118°12'0 0.0
2014-Oct-15 06:31N 33°46' W 118°12'0 0.0
2014-Oct-15 05:31N 33°46' W 118°12'0 0.0
2014-Oct-15 04:31N 33°46' W 118°12'0 0.0
2014-Oct-15 03:31N 33°46' W 118°12'0 0.0
2014-Oct-15 02:31N 33°46' W 118°12'0 0.0
2014-Oct-15 01:31N 33°46' W 118°12'0 0.0
2014-Oct-15 00:19N 33°46' W 118°12'0 0.0
2014-Oct-14 23:22N 33°46' W 118°12'0 0.0
2014-Oct-14 22:19N 33°46' W 118°12'0 0.0
2014-Oct-14 16:28N 33°46' W 118°12'0 0.0
2014-Oct-14 15:25N 33°46' W 118°12'0 0.0
2014-Oct-14 14:28N 33°46' W 118°12'0 0.0
2014-Oct-14 13:31N 33°46' W 118°12'0 0.0
2014-Oct-14 12:31N 33°46' W 118°12'0 0.0
2014-Oct-14 11:31N 33°46' W 118°12'0 0.0
2014-Oct-14 10:31N 33°46' W 118°12'0 0.0
2014-Oct-14 09:31N 33°46' W 118°12'0 0.0
2014-Oct-14 08:31N 33°46' W 118°12'0 0.0
2014-Oct-14 07:31N 33°46' W 118°12'0 0.0
2014-Oct-14 06:31N 33°46' W 118°12'0 0.0
2014-Oct-14 05:31N 33°46' W 118°12'0 0.0
2014-Oct-14 04:31N 33°46' W 118°12'0 0.0
2014-Oct-14 03:31N 33°46' W 118°12'0 0.0
2014-Oct-14 02:31N 33°46' W 118°12'0 0.0
2014-Oct-14 01:31N 33°46' W 118°12'0 0.0
2014-Oct-14 00:31N 33°46' W 118°12'0 0.0
2014-Oct-13 23:31N 33°46' W 118°12'1 0.8
2014-Oct-13 22:31N 33°45' W 118°11'4 4.2
2014-Oct-13 21:33N 33°41' W 118°11'5 5.3
2014-Oct-13 20:33N 33°36' W 118°14'6 6.3
2014-Oct-13 19:33N 33°31' W 118°17'4 4.3
2014-Oct-13 18:32N 33°27' W 118°20'3 3.4
2014-Oct-13 17:33N 33°24' W 118°22'0 0.3
2014-Oct-13 16:32N 33°24' W 118°22'0 0.0
2014-Oct-13 15:29N 33°24' W 118°22'0 0.0
2014-Oct-13 12:29N 33°24' W 118°22'0 0.0
2014-Oct-13 11:29N 33°24' W 118°22'0 0.0
2014-Oct-13 08:32N 33°24' W 118°22'0 0.0
2014-Oct-13 07:32N 33°24' W 118°22'0 0.0
2014-Oct-13 06:17N 33°24' W 118°22'0 0.0
2014-Oct-13 05:29N 33°24' W 118°22'0 0.0
2014-Oct-13 04:29N 33°24' W 118°22'0 0.0
2014-Oct-13 03:29N 33°24' W 118°22'0 0.0
2014-Oct-13 02:29N 33°24' W 118°22'0 0.0
2014-Oct-13 01:32N 33°24' W 118°22'0 0.0
2014-Oct-13 00:32N 33°24' W 118°22'2 2.1
2014-Oct-12 23:33N 33°26' W 118°20'1 0.9
2014-Oct-12 22:33N 33°26' W 118°22'3 3.3
2014-Oct-12 21:33N 33°29' W 118°20'6 5.9
2014-Oct-12 20:33N 33°29' W 118°27'3 0.2
2014-Oct-12 02:10N 33°27' W 118°30'0 0.0
2014-Oct-12 01:31N 33°27' W 118°30'0 0.1
2014-Oct-12 00:31N 33°27' W 118°30'  

Dump ship's entire track history